createdAt,value
2023-04-29T00:00:24.197Z,3.90
2023-04-29T00:03:29.206Z,3.50
2023-04-29T00:06:32.474Z,3.30
2023-04-29T00:09:37.593Z,2.88
2023-04-29T00:12:42.031Z,2.90
2023-04-29T00:15:44.932Z,2.50
2023-04-29T00:18:47.808Z,2.85
2023-04-29T00:21:50.757Z,3.20
2023-04-29T00:24:55.216Z,2.50
2023-04-29T00:28:01.836Z,2.25
2023-04-29T00:31:04.832Z,2.88
2023-04-29T00:34:08.034Z,2.03
2023-04-29T00:37:11.064Z,2.67
2023-04-29T00:40:16.321Z,2.65
2023-04-29T00:43:19.225Z,2.60
2023-04-29T00:46:22.218Z,2.60
2023-04-29T00:49:25.129Z,2.13
2023-04-29T00:52:31.466Z,2.60
2023-04-29T00:55:36.591Z,2.92
2023-04-29T00:58:39.779Z,2.03
2023-04-29T01:01:43.114Z,2.47
2023-04-29T01:04:46.395Z,2.50
2023-04-29T01:07:57.613Z,2.20
2023-04-29T01:11:24.621Z,2.30
2023-04-29T01:14:27.745Z,2.35
2023-04-29T01:17:37.345Z,2.97
2023-04-29T01:20:41.972Z,2.38
2023-04-29T01:23:46.234Z,2.90
2023-04-29T01:30:02.056Z,2.78
2023-04-29T01:33:15.631Z,2.63
2023-04-29T01:36:29.127Z,2.43
2023-04-29T01:39:38.718Z,2.10
2023-04-29T01:42:47.973Z,2.20
2023-04-29T01:45:51.612Z,1.88
2023-04-29T01:48:55.232Z,1.80
2023-04-29T01:51:58.216Z,1.77
2023-04-29T01:55:03.635Z,1.95
2023-04-29T01:58:06.992Z,1.90
2023-04-29T02:01:11.865Z,2.20
2023-04-29T02:04:14.923Z,2.03
2023-04-29T02:07:18.719Z,1.92
2023-04-29T02:10:22.985Z,2.20
2023-04-29T02:16:29.097Z,1.77
2023-04-29T02:19:32.182Z,1.80
2023-04-29T02:22:35.378Z,2.17
2023-04-29T02:25:40.142Z,2.00
2023-04-29T02:28:43.349Z,2.25
2023-04-29T02:31:46.539Z,2.03
2023-04-29T02:34:50.002Z,1.80
2023-04-29T02:37:53.550Z,2.20
2023-04-29T02:40:58.096Z,1.90
2023-04-29T02:44:01.231Z,1.88
2023-04-29T02:47:04.401Z,2.15
2023-04-29T02:50:08.575Z,2.10
2023-04-29T02:53:35.631Z,2.10
2023-04-29T02:56:38.826Z,2.10
2023-04-29T02:59:41.998Z,1.85
2023-04-29T03:02:45.040Z,2.10
2023-04-29T03:05:48.336Z,2.05
2023-04-29T03:08:53.703Z,2.30
2023-04-29T03:11:56.648Z,2.40
2023-04-29T03:14:59.643Z,2.50
2023-04-29T03:18:04.715Z,2.67
2023-04-29T03:21:07.756Z,2.80
2023-04-29T03:24:12.849Z,2.45
2023-04-29T03:27:16.000Z,2.10
2023-04-29T03:30:19.543Z,2.13
2023-04-29T03:33:22.684Z,2.30
2023-04-29T03:36:25.676Z,2.17
2023-04-29T03:39:32.422Z,2.45
2023-04-29T03:42:35.346Z,2.60
2023-04-29T03:45:38.212Z,2.70
2023-04-29T03:48:41.244Z,2.50
2023-04-29T03:51:45.332Z,2.60
2023-04-29T03:54:49.696Z,2.20
2023-04-29T03:57:52.722Z,2.22
2023-04-29T04:00:56.227Z,2.13
2023-04-29T04:03:59.336Z,2.50
2023-04-29T04:07:03.850Z,2.08
2023-04-29T04:10:09.060Z,2.70
2023-04-29T04:13:12.003Z,3.10
2023-04-29T04:16:15.112Z,2.40
2023-04-29T04:19:18.154Z,2.20
2023-04-29T04:22:21.147Z,2.22
2023-04-29T04:25:25.584Z,2.03
2023-04-29T04:28:28.572Z,2.25
2023-04-29T04:31:31.622Z,2.35
2023-04-29T04:34:34.653Z,1.92
2023-04-29T04:37:37.574Z,2.40
2023-04-29T04:40:43.496Z,2.20
2023-04-29T04:43:46.545Z,2.50
2023-04-29T04:46:50.484Z,2.72
2023-04-29T04:49:53.873Z,2.05
2023-04-29T04:52:57.377Z,2.40
2023-04-29T04:56:03.459Z,2.17
2023-04-29T04:59:06.708Z,1.90
2023-04-29T05:02:09.761Z,2.53
2023-04-29T05:05:12.764Z,1.90
2023-04-29T05:08:15.745Z,2.08
2023-04-29T05:11:21.507Z,2.20
2023-04-29T05:14:24.862Z,2.40
2023-04-29T05:17:27.879Z,2.10
2023-04-29T05:20:30.844Z,2.53
2023-04-29T05:23:33.786Z,2.30
2023-04-29T05:26:38.173Z,2.47
2023-04-29T05:29:41.237Z,2.05
2023-04-29T05:32:45.627Z,2.58
2023-04-29T05:35:48.700Z,2.15
2023-04-29T05:38:51.684Z,2.05
2023-04-29T05:41:56.072Z,2.80
2023-04-29T05:44:59.527Z,2.30
2023-04-29T05:48:02.574Z,2.47
2023-04-29T05:51:06.381Z,2.13
2023-04-29T05:54:09.526Z,1.95
2023-04-29T05:57:14.109Z,2.10
2023-04-29T06:00:17.185Z,2.28
2023-04-29T06:03:20.636Z,2.55
2023-04-29T06:06:23.945Z,2.35
2023-04-29T06:09:28.135Z,2.50
2023-04-29T06:12:32.915Z,2.90
2023-04-29T06:15:35.997Z,2.67
2023-04-29T06:18:39.120Z,2.83
2023-04-29T06:21:42.423Z,2.42
2023-04-29T06:24:45.522Z,2.77
2023-04-29T06:27:50.516Z,2.30
2023-04-29T06:30:53.944Z,2.53
2023-04-29T06:33:56.892Z,2.50
2023-04-29T06:36:59.890Z,2.50
2023-04-29T06:40:03.439Z,2.53
2023-04-29T06:43:07.965Z,2.53
2023-04-29T06:46:11.770Z,2.58
2023-04-29T06:49:14.815Z,3.20
2023-04-29T06:52:18.197Z,3.05
2023-04-29T06:55:21.368Z,2.87
2023-04-29T06:58:25.873Z,3.20
2023-04-29T07:01:28.888Z,3.78
2023-04-29T07:04:32.271Z,3.03
2023-04-29T07:07:35.658Z,3.43
2023-04-29T07:10:38.861Z,4.03
2023-04-29T07:13:43.227Z,3.80
2023-04-29T07:16:46.241Z,3.55
2023-04-29T07:19:49.347Z,3.75
2023-04-29T07:22:52.746Z,3.63
2023-04-29T07:25:55.840Z,3.93
2023-04-29T07:29:00.244Z,3.47
2023-04-29T07:32:03.351Z,3.65
2023-04-29T07:35:07.054Z,3.47
2023-04-29T07:38:10.250Z,3.47
2023-04-29T07:41:13.741Z,3.73
2023-04-29T07:44:18.176Z,3.90
2023-04-29T07:47:21.644Z,3.80
2023-04-29T07:50:24.865Z,3.13
2023-04-29T07:53:27.799Z,3.63
2023-04-29T07:56:30.726Z,3.97
2023-04-29T07:59:35.381Z,3.50
2023-04-29T08:02:38.607Z,2.92
2023-04-29T08:05:43.442Z,3.50
2023-04-29T08:08:46.436Z,3.30
2023-04-29T08:11:49.901Z,3.35
2023-04-29T08:14:54.770Z,3.83
2023-04-29T08:17:57.947Z,2.92
2023-04-29T08:21:01.043Z,3.25
2023-04-29T08:24:05.744Z,3.15
2023-04-29T08:27:08.750Z,2.92
2023-04-29T08:30:13.810Z,3.60
2023-04-29T08:33:16.982Z,2.63
2023-04-29T08:36:20.450Z,3.03
2023-04-29T08:39:46.735Z,2.63
2023-04-29T08:42:50.600Z,2.40
2023-04-29T08:45:54.042Z,2.78
2023-04-29T08:48:58.377Z,2.55
2023-04-29T08:52:02.346Z,2.47
2023-04-29T08:55:08.394Z,2.92
2023-04-29T08:58:12.371Z,3.00
2023-04-29T09:01:15.705Z,3.00
2023-04-29T09:04:30.982Z,3.03
2023-04-29T09:07:34.484Z,2.65
2023-04-29T09:10:39.620Z,2.50
2023-04-29T09:13:42.581Z,2.63
2023-04-29T09:16:47.683Z,1.80
2023-04-29T09:19:51.056Z,2.50
2023-04-29T09:22:55.570Z,2.50
2023-04-29T09:26:00.261Z,2.53
2023-04-29T09:29:11.613Z,2.55
2023-04-29T09:32:20.055Z,2.72
2023-04-29T09:35:24.488Z,2.78
2023-04-29T09:38:27.771Z,2.47
2023-04-29T09:41:32.143Z,2.43
2023-04-29T09:44:36.690Z,2.67
2023-04-29T09:47:39.716Z,2.38
2023-04-29T09:50:44.903Z,3.03
2023-04-29T09:53:47.816Z,2.95
2023-04-29T09:56:53.736Z,2.22
2023-04-29T09:59:56.715Z,2.88
2023-04-29T10:03:02.277Z,2.22
2023-04-29T10:06:07.135Z,2.58
2023-04-29T10:09:15.964Z,2.63
2023-04-29T10:12:21.622Z,3.20
2023-04-29T10:15:30.442Z,3.33
2023-04-29T10:18:38.183Z,3.20
2023-04-29T10:21:41.279Z,2.88
2023-04-29T10:24:45.392Z,3.05
2023-04-29T10:27:52.965Z,3.22
2023-04-29T10:30:58.814Z,2.75
2023-04-29T10:34:02.184Z,2.90
2023-04-29T10:37:05.799Z,2.70
2023-04-29T10:40:16.057Z,2.33
2023-04-29T10:43:26.335Z,2.30
2023-04-29T10:46:29.679Z,2.38
2023-04-29T10:52:57.847Z,1.83
2023-04-29T10:56:06.855Z,2.15
2023-04-29T10:59:14.953Z,3.03
2023-04-29T11:02:19.978Z,2.03
2023-04-29T11:05:32.095Z,2.60
2023-04-29T11:08:40.150Z,3.03
2023-04-29T11:12:00.735Z,2.85
2023-04-29T11:15:04.890Z,2.88
2023-04-29T11:18:12.462Z,3.50
2023-04-29T11:21:16.182Z,2.72
2023-04-29T11:24:21.119Z,2.00
2023-04-29T11:27:26.286Z,2.33
2023-04-29T11:30:29.996Z,3.00
2023-04-29T11:33:33.992Z,3.10
2023-04-29T11:36:37.715Z,2.50
2023-04-29T11:39:42.230Z,4.57
2023-04-29T11:42:46.781Z,3.33
2023-04-29T11:45:50.609Z,3.90
2023-04-29T11:48:53.639Z,3.92
2023-04-29T11:51:57.261Z,3.25
2023-04-29T11:55:02.410Z,3.17
2023-04-29T11:58:27.285Z,2.85
2023-04-29T12:01:31.313Z,3.55
2023-04-29T12:04:34.446Z,3.38
2023-04-29T12:07:37.951Z,4.53
2023-04-29T12:10:41.520Z,4.10
2023-04-29T12:13:46.435Z,4.43
2023-04-29T12:16:49.798Z,4.38
2023-04-29T12:19:53.055Z,4.67
2023-04-29T12:22:56.131Z,4.35
2023-04-29T12:26:00.926Z,4.32
2023-04-29T12:29:05.471Z,5.38
2023-04-29T12:32:09.343Z,4.97
2023-04-29T12:35:18.982Z,4.50
2023-04-29T12:38:22.670Z,4.32
2023-04-29T12:41:38.133Z,4.15
2023-04-29T12:44:42.496Z,3.65
2023-04-29T12:47:46.815Z,2.95
2023-04-29T12:50:51.455Z,3.90
2023-04-29T12:54:18.378Z,3.08
2023-04-29T12:57:23.080Z,3.10
2023-04-29T13:00:26.065Z,3.10
2023-04-29T13:03:29.105Z,3.15
2023-04-29T13:06:32.565Z,3.33
2023-04-29T13:09:38.089Z,2.53
2023-04-29T13:12:41.424Z,2.90
2023-04-29T13:15:44.809Z,2.95
2023-04-29T13:19:01.111Z,2.50
2023-04-29T13:22:08.181Z,2.10
2023-04-29T13:25:13.157Z,2.17
2023-04-29T13:28:16.638Z,2.00
2023-04-29T13:31:19.686Z,2.40
2023-04-29T13:34:22.688Z,2.13
2023-04-29T13:37:25.805Z,2.20
2023-04-29T13:40:31.093Z,1.75
2023-04-29T13:43:38.437Z,1.60
2023-04-29T13:46:44.333Z,1.48
2023-04-29T13:53:30.319Z,1.23
2023-04-29T14:02:31.131Z,1.33
2023-04-29T14:05:34.870Z,1.45
2023-04-29T14:08:37.998Z,2.08
2023-04-29T14:11:42.686Z,1.20
2023-04-29T14:14:45.630Z,1.15
2023-04-29T14:17:50.157Z,1.33
2023-04-29T14:20:54.350Z,1.02
2023-04-29T14:27:01.954Z,1.35
2023-04-29T14:30:05.966Z,1.30
2023-04-29T14:33:09.068Z,1.23
2023-04-29T14:36:12.003Z,1.08
2023-04-29T14:39:15.055Z,1.17
2023-04-29T14:42:19.575Z,1.20
2023-04-29T14:45:22.562Z,1.20
2023-04-29T14:48:25.758Z,1.40
2023-04-29T14:51:29.422Z,1.23
2023-04-29T14:54:32.639Z,1.35
2023-04-29T14:57:37.284Z,1.40
2023-04-29T15:00:40.536Z,2.10
2023-04-29T15:03:44.994Z,1.67
2023-04-29T15:06:48.393Z,1.40
2023-04-29T15:09:51.697Z,1.58
2023-04-29T15:12:56.044Z,1.23
2023-04-29T15:15:59.083Z,1.10
2023-04-29T15:19:02.421Z,1.13
2023-04-29T15:22:05.392Z,0.95
2023-04-29T15:25:09.443Z,1.30
2023-04-29T15:28:14.166Z,1.02
2023-04-29T15:31:17.173Z,1.25
2023-04-29T15:34:20.761Z,1.00
2023-04-29T15:37:25.024Z,1.00
2023-04-29T15:40:28.142Z,1.10
2023-04-29T15:43:33.389Z,0.90
2023-04-29T15:46:36.604Z,1.10
2023-04-29T15:49:39.714Z,1.10
2023-04-29T15:52:43.289Z,1.50
2023-04-29T15:55:46.424Z,0.90
2023-04-29T15:58:50.693Z,0.80
2023-04-29T16:04:56.783Z,0.95
2023-04-29T16:08:00.117Z,1.05
2023-04-29T16:11:03.467Z,1.07
2023-04-29T16:14:07.860Z,1.10
2023-04-29T16:17:10.901Z,1.33
2023-04-29T16:20:14.137Z,0.88
2023-04-29T16:23:17.119Z,1.05
2023-04-29T16:26:20.204Z,1.65
2023-04-29T16:29:24.544Z,1.10
2023-04-29T16:32:28.730Z,1.10
2023-04-29T16:38:35.303Z,0.70
2023-04-29T16:41:38.582Z,0.83
2023-04-29T16:44:42.832Z,0.77
2023-04-29T16:50:50.646Z,1.02
2023-04-29T16:53:54.256Z,0.88
2023-04-29T16:56:57.442Z,1.13
2023-04-29T17:00:01.944Z,1.23
2023-04-29T17:03:06.096Z,1.20
2023-04-29T17:09:12.292Z,1.10
2023-04-29T17:12:15.901Z,1.33
2023-04-29T17:15:20.383Z,1.20
2023-04-29T17:18:23.595Z,1.27
2023-04-29T17:21:26.666Z,1.13
2023-04-29T17:24:30.168Z,1.27
2023-04-29T17:27:33.227Z,1.70
2023-04-29T17:30:37.537Z,1.15
2023-04-29T17:36:47.764Z,1.17
2023-04-29T17:39:50.804Z,1.20
2023-04-29T17:42:53.859Z,0.93
2023-04-29T17:45:59.387Z,1.33
2023-04-29T17:49:02.457Z,1.33
2023-04-29T17:52:05.680Z,1.52
2023-04-29T17:55:09.474Z,1.17
2023-04-29T17:58:12.493Z,1.90
2023-04-29T18:01:17.227Z,1.00
2023-04-29T18:04:20.168Z,1.50
2023-04-29T18:07:23.132Z,1.30
2023-04-29T18:10:27.163Z,1.02
2023-04-29T18:13:30.408Z,1.33
2023-04-29T18:16:34.738Z,1.40
2023-04-29T18:19:37.704Z,1.15
2023-04-29T18:22:41.690Z,1.40
2023-04-29T18:25:44.790Z,1.38
2023-04-29T18:28:49.190Z,1.33
2023-04-29T18:31:54.643Z,1.13
2023-04-29T18:34:59.490Z,0.93
2023-04-29T18:38:03.626Z,1.27
2023-04-29T18:41:06.721Z,1.02
2023-04-29T18:44:09.790Z,1.60
2023-04-29T18:47:14.031Z,1.05
2023-04-29T18:53:20.397Z,1.23
2023-04-29T18:56:23.796Z,1.03
2023-04-29T18:59:26.927Z,1.60
2023-04-29T19:02:31.620Z,1.40
2023-04-29T19:05:34.712Z,1.10
2023-04-29T19:08:37.957Z,0.95
2023-04-29T19:11:41.024Z,1.45
2023-04-29T19:14:44.028Z,0.98
2023-04-29T19:17:48.436Z,1.88
2023-04-29T19:20:51.936Z,1.02
2023-04-29T19:23:54.924Z,0.87
2023-04-29T19:26:57.885Z,1.23
2023-04-29T19:30:00.808Z,1.02
2023-04-29T19:33:05.136Z,1.38
2023-04-29T19:39:11.536Z,0.98
2023-04-29T19:42:14.800Z,1.47
2023-04-29T19:45:17.999Z,1.05
2023-04-29T19:48:22.635Z,0.77
2023-04-29T19:51:25.877Z,1.20
2023-04-29T19:54:29.801Z,1.30
2023-04-29T19:57:33.098Z,0.90
2023-04-29T20:00:36.221Z,0.90
2023-04-29T20:03:41.499Z,1.15
2023-04-29T20:06:44.914Z,1.25
2023-04-29T20:09:48.304Z,0.63
2023-04-29T20:12:51.335Z,0.77
2023-04-29T20:15:54.461Z,0.75
2023-04-29T20:18:58.768Z,0.90
2023-04-29T20:25:05.116Z,0.77
2023-04-29T20:28:08.875Z,0.90
2023-04-29T20:31:11.845Z,0.90
2023-04-29T20:34:16.171Z,1.25
2023-04-29T20:37:20.129Z,1.42
2023-04-29T20:40:23.647Z,0.90
2023-04-29T20:43:26.636Z,0.80
2023-04-29T20:46:30.126Z,1.13
2023-04-29T20:49:34.919Z,1.15
2023-04-29T20:52:38.005Z,1.20
2023-04-29T20:55:41.014Z,0.90
2023-04-29T20:58:43.969Z,0.90
2023-04-29T21:01:47.302Z,0.98
2023-04-29T21:04:51.924Z,1.43
2023-04-29T21:07:54.875Z,0.98
2023-04-29T21:10:57.928Z,1.50
2023-04-29T21:14:01.047Z,1.00
2023-04-29T21:17:04.169Z,1.20
2023-04-29T21:20:10.061Z,1.73
2023-04-29T21:23:12.985Z,1.42
2023-04-29T21:26:16.118Z,1.98
2023-04-29T21:29:19.777Z,1.23
2023-04-29T21:32:22.787Z,1.40
2023-04-29T21:35:27.683Z,1.23
2023-04-29T21:38:30.786Z,1.48
2023-04-29T21:41:38.198Z,1.70
2023-04-29T21:44:41.274Z,1.80
2023-04-29T21:47:44.512Z,1.38
2023-04-29T21:50:49.128Z,2.33
2023-04-29T21:53:52.368Z,2.28
2023-04-29T21:56:55.323Z,1.42
2023-04-29T21:59:58.386Z,2.00
2023-04-29T22:03:01.718Z,1.65
2023-04-29T22:06:06.245Z,2.03
2023-04-29T22:09:09.923Z,1.90
2023-04-29T22:12:12.888Z,1.98
2023-04-29T22:15:27.286Z,1.65
2023-04-29T22:18:31.612Z,1.70
2023-04-29T22:21:38.268Z,2.30
2023-04-29T22:24:41.288Z,2.65
2023-04-29T22:27:44.250Z,1.80
2023-04-29T22:30:47.819Z,2.00
2023-04-29T22:33:50.864Z,1.73
2023-04-29T22:36:55.413Z,1.98
2023-04-29T22:40:21.652Z,2.20
2023-04-29T22:43:24.649Z,1.90
2023-04-29T22:46:27.945Z,1.80
2023-04-29T22:49:31.044Z,2.00
2023-04-29T22:52:34.258Z,1.95
2023-04-29T22:55:38.648Z,1.50
2023-04-29T22:58:41.553Z,1.63
2023-04-29T23:01:44.583Z,1.73
2023-04-29T23:04:47.646Z,1.95
2023-04-29T23:07:50.628Z,2.05
2023-04-29T23:10:54.945Z,1.80
2023-04-29T23:13:58.433Z,1.92
2023-04-29T23:17:01.347Z,1.73
2023-04-29T23:20:04.990Z,1.60
2023-04-29T23:23:08.405Z,1.42
2023-04-29T23:26:12.673Z,1.93
2023-04-29T23:29:15.755Z,1.60
2023-04-29T23:32:19.415Z,1.60
2023-04-29T23:35:22.423Z,1.67
2023-04-29T23:38:25.436Z,2.42
2023-04-29T23:41:29.956Z,1.48
2023-04-29T23:44:33.196Z,1.58
2023-04-29T23:47:36.865Z,1.43
2023-04-29T23:50:40.157Z,1.50
2023-04-29T23:53:43.120Z,2.13
2023-04-29T23:56:47.446Z,1.58
2023-04-29T23:59:50.621Z,1.45
